sensor_id;sensor_type;location;lat;lon;timestamp;P1;durP1;ratioP1;P2;durP2;ratioP2
29238;SDS011;16267;48.194;11.546;2022-12-18T05:04:53;59.42;;;24.10;;
29238;SDS011;16267;48.194;11.546;2022-12-18T05:07:19;59.00;;;25.60;;
29238;SDS011;16267;48.194;11.546;2022-12-18T05:09:44;65.28;;;26.40;;
29238;SDS011;16267;48.194;11.546;2022-12-18T05:12:10;64.55;;;26.60;;
29238;SDS011;16267;48.194;11.546;2022-12-18T05:14:36;63.45;;;25.60;;
29238;SDS011;16267;48.194;11.546;2022-12-18T05:17:02;53.90;;;23.63;;
29238;SDS011;16267;48.194;11.546;2022-12-18T05:19:27;57.80;;;24.98;;
29238;SDS011;16267;48.194;11.546;2022-12-18T05:21:53;62.65;;;25.65;;
29238;SDS011;16267;48.194;11.546;2022-12-18T05:24:19;60.08;;;25.30;;
29238;SDS011;16267;48.194;11.546;2022-12-18T05:26:44;59.05;;;25.17;;
29238;SDS011;16267;48.194;11.546;2022-12-18T05:29:10;55.22;;;23.90;;
29238;SDS011;16267;48.194;11.546;2022-12-18T05:31:37;57.67;;;24.67;;
29238;SDS011;16267;48.194;11.546;2022-12-18T05:34:04;63.53;;;25.92;;
29238;SDS011;16267;48.194;11.546;2022-12-18T05:36:30;62.63;;;25.75;;
29238;SDS011;16267;48.194;11.546;2022-12-18T05:38:56;58.95;;;26.52;;
29238;SDS011;16267;48.194;11.546;2022-12-18T05:41:22;59.50;;;25.75;;
29238;SDS011;16267;48.194;11.546;2022-12-18T05:43:48;58.58;;;23.90;;
29238;SDS011;16267;48.194;11.546;2022-12-18T05:46:15;60.20;;;26.67;;
29238;SDS011;16267;48.194;11.546;2022-12-18T05:48:43;58.45;;;25.90;;
29238;SDS011;16267;48.194;11.546;2022-12-18T05:51:11;66.60;;;26.67;;
29238;SDS011;16267;48.194;11.546;2022-12-18T05:53:39;57.63;;;25.42;;
29238;SDS011;16267;48.194;11.546;2022-12-18T05:56:07;59.90;;;25.90;;
29238;SDS011;16267;48.194;11.546;2022-12-18T05:58:40;59.72;;;25.40;;
29238;SDS011;16267;48.194;11.546;2022-12-18T06:01:16;59.83;;;23.50;;
29238;SDS011;16267;48.194;11.546;2022-12-18T06:03:45;59.63;;;25.52;;
29238;SDS011;16267;48.194;11.546;2022-12-18T06:08:47;55.90;;;24.60;;
29238;SDS011;16267;48.194;11.546;2022-12-18T06:11:15;65.97;;;26.17;;
29238;SDS011;16267;48.194;11.546;2022-12-18T06:13:44;58.30;;;25.08;;
29238;SDS011;16267;48.194;11.546;2022-12-18T06:16:11;60.25;;;25.75;;
29238;SDS011;16267;48.194;11.546;2022-12-18T06:18:37;56.90;;;24.55;;
29238;SDS011;16267;48.194;11.546;2022-12-18T06:21:03;57.53;;;23.70;;
29238;SDS011;16267;48.194;11.546;2022-12-18T06:23:29;54.13;;;22.35;;
29238;SDS011;16267;48.194;11.546;2022-12-18T06:25:55;52.25;;;24.23;;
29238;SDS011;16267;48.194;11.546;2022-12-18T06:28:21;55.90;;;22.77;;
29238;SDS011;16267;48.194;11.546;2022-12-18T06:30:47;58.90;;;24.80;;
29238;SDS011;16267;48.194;11.546;2022-12-18T06:33:14;58.45;;;24.67;;
29238;SDS011;16267;48.194;11.546;2022-12-18T06:35:41;56.47;;;24.27;;
29238;SDS011;16267;48.194;11.546;2022-12-18T06:38:07;60.10;;;24.50;;
29238;SDS011;16267;48.194;11.546;2022-12-18T06:40:32;60.63;;;24.73;;
29238;SDS011;16267;48.194;11.546;2022-12-18T06:42:58;53.60;;;23.65;;
29238;SDS011;16267;48.194;11.546;2022-12-18T06:45:24;54.85;;;25.23;;
29238;SDS011;16267;48.194;11.546;2022-12-18T06:47:50;58.70;;;24.67;;
29238;SDS011;16267;48.194;11.546;2022-12-18T06:50:16;59.70;;;26.33;;
29238;SDS011;16267;48.194;11.546;2022-12-18T06:52:42;62.63;;;25.58;;
29238;SDS011;16267;48.194;11.546;2022-12-18T06:55:09;54.70;;;23.77;;
29238;SDS011;16267;48.194;11.546;2022-12-18T06:57:36;55.40;;;23.70;;
29238;SDS011;16267;48.194;11.546;2022-12-18T07:00:03;53.78;;;22.13;;
29238;SDS011;16267;48.194;11.546;2022-12-18T07:02:31;53.90;;;23.10;;
29238;SDS011;16267;48.194;11.546;2022-12-18T07:04:58;52.97;;;22.65;;
29238;SDS011;16267;48.194;11.546;2022-12-18T07:07:24;50.83;;;23.17;;
29238;SDS011;16267;48.194;11.546;2022-12-18T07:09:50;57.30;;;23.10;;
29238;SDS011;16267;48.194;11.546;2022-12-18T07:12:16;59.00;;;24.73;;
29238;SDS011;16267;48.194;11.546;2022-12-18T07:14:42;61.85;;;24.88;;
29238;SDS011;16267;48.194;11.546;2022-12-18T07:17:08;60.42;;;24.95;;
29238;SDS011;16267;48.194;11.546;2022-12-18T07:19:33;60.42;;;24.52;;
29238;SDS011;16267;48.194;11.546;2022-12-18T07:21:59;62.20;;;26.70;;
29238;SDS011;16267;48.194;11.546;2022-12-18T07:24:25;62.10;;;26.10;;
29238;SDS011;16267;48.194;11.546;2022-12-18T07:26:51;66.63;;;26.55;;
29238;SDS011;16267;48.194;11.546;2022-12-18T07:29:17;60.60;;;24.95;;
29238;SDS011;16267;48.194;11.546;2022-12-18T07:31:43;61.70;;;26.55;;
29238;SDS011;16267;48.194;11.546;2022-12-18T07:34:10;59.92;;;24.27;;
29238;SDS011;16267;48.194;11.546;2022-12-18T07:36:37;55.20;;;22.40;;
29238;SDS011;16267;48.194;11.546;2022-12-18T07:39:03;55.25;;;23.88;;
29238;SDS011;16267;48.194;11.546;2022-12-18T07:41:29;50.92;;;22.67;;
29238;SDS011;16267;48.194;11.546;2022-12-18T07:43:55;49.85;;;22.63;;
29238;SDS011;16267;48.194;11.546;2022-12-18T07:46:21;54.17;;;23.65;;
29238;SDS011;16267;48.194;11.546;2022-12-18T07:48:47;58.03;;;25.48;;
29238;SDS011;16267;48.194;11.546;2022-12-18T07:51:13;53.50;;;23.77;;
29238;SDS011;16267;48.194;11.546;2022-12-18T07:53:39;53.47;;;23.58;;
29238;SDS011;16267;48.194;11.546;2022-12-18T07:56:07;62.30;;;25.08;;
29238;SDS011;16267;48.194;11.546;2022-12-18T07:58:35;60.78;;;24.20;;
29238;SDS011;16267;48.194;11.546;2022-12-18T08:01:11;60.28;;;25.23;;
29238;SDS011;16267;48.194;11.546;2022-12-18T08:03:37;57.60;;;24.05;;
29238;SDS011;16267;48.194;11.546;2022-12-18T08:06:06;58.45;;;23.88;;
29238;SDS011;16267;48.194;11.546;2022-12-18T08:08:33;52.90;;;21.75;;
29238;SDS011;16267;48.194;11.546;2022-12-18T08:11:00;55.92;;;22.50;;
29238;SDS011;16267;48.194;11.546;2022-12-18T08:13:26;55.03;;;23.25;;
29238;SDS011;16267;48.194;11.546;2022-12-18T08:16:00;49.83;;;22.08;;
29238;SDS011;16267;48.194;11.546;2022-12-18T08:18:29;51.30;;;23.02;;
29238;SDS011;16267;48.194;11.546;2022-12-18T08:20:57;51.20;;;22.48;;
29238;SDS011;16267;48.194;11.546;2022-12-18T08:23:22;52.33;;;22.65;;
29238;SDS011;16267;48.194;11.546;2022-12-18T08:25:48;57.38;;;23.60;;
29238;SDS011;16267;48.194;11.546;2022-12-18T08:28:16;53.10;;;23.83;;
29238;SDS011;16267;48.194;11.546;2022-12-18T08:30:42;54.42;;;22.70;;
29238;SDS011;16267;48.194;11.546;2022-12-18T08:33:08;52.00;;;22.35;;
29238;SDS011;16267;48.194;11.546;2022-12-18T08:35:36;55.90;;;23.95;;
29238;SDS011;16267;48.194;11.546;2022-12-18T08:38:02;57.95;;;23.20;;
29238;SDS011;16267;48.194;11.546;2022-12-18T08:40:29;57.60;;;22.85;;
29238;SDS011;16267;48.194;11.546;2022-12-18T08:42:55;50.03;;;23.48;;
29238;SDS011;16267;48.194;11.546;2022-12-18T08:45:39;55.30;;;22.48;;
29238;SDS011;16267;48.194;11.546;2022-12-18T08:48:04;53.10;;;22.38;;
29238;SDS011;16267;48.194;11.546;2022-12-18T08:50:30;48.30;;;21.50;;
29238;SDS011;16267;48.194;11.546;2022-12-18T08:52:56;54.60;;;22.38;;
29238;SDS011;16267;48.194;11.546;2022-12-18T08:55:22;52.65;;;23.42;;
29238;SDS011;16267;48.194;11.546;2022-12-18T08:57:48;55.83;;;23.63;;
29238;SDS011;16267;48.194;11.546;2022-12-18T09:00:15;53.75;;;23.80;;
29238;SDS011;16267;48.194;11.546;2022-12-18T09:02:41;51.17;;;22.60;;
29238;SDS011;16267;48.194;11.546;2022-12-18T09:05:07;59.72;;;22.83;;
29238;SDS011;16267;48.194;11.546;2022-12-18T09:07:32;53.55;;;23.45;;
29238;SDS011;16267;48.194;11.546;2022-12-18T09:09:58;55.17;;;23.42;;
29238;SDS011;16267;48.194;11.546;2022-12-18T09:12:24;59.08;;;24.77;;
29238;SDS011;16267;48.194;11.546;2022-12-18T09:14:50;58.30;;;24.35;;
29238;SDS011;16267;48.194;11.546;2022-12-18T09:17:16;54.97;;;22.10;;
29238;SDS011;16267;48.194;11.546;2022-12-18T09:19:41;51.03;;;21.83;;
29238;SDS011;16267;48.194;11.546;2022-12-18T09:22:08;47.25;;;21.02;;
29238;SDS011;16267;48.194;11.546;2022-12-18T09:24:34;55.10;;;22.63;;
29238;SDS011;16267;48.194;11.546;2022-12-18T09:27:00;50.72;;;21.45;;
29238;SDS011;16267;48.194;11.546;2022-12-18T09:29:26;51.25;;;22.77;;
29238;SDS011;16267;48.194;11.546;2022-12-18T09:31:52;50.75;;;22.27;;
29238;SDS011;16267;48.194;11.546;2022-12-18T09:34:17;47.75;;;21.33;;
29238;SDS011;16267;48.194;11.546;2022-12-18T09:36:45;49.22;;;21.50;;
29238;SDS011;16267;48.194;11.546;2022-12-18T09:39:11;53.67;;;22.40;;
29238;SDS011;16267;48.194;11.546;2022-12-18T09:46:53;52.15;;;21.25;;
29238;SDS011;16267;48.194;11.546;2022-12-18T09:49:29;47.78;;;21.23;;
29238;SDS011;16267;48.194;11.546;2022-12-18T09:52:04;47.15;;;20.90;;
29238;SDS011;16267;48.194;11.546;2022-12-18T09:54:46;50.40;;;20.23;;
29238;SDS011;16267;48.194;11.546;2022-12-18T09:57:20;48.75;;;21.55;;
29238;SDS011;16267;48.194;11.546;2022-12-18T09:59:51;47.80;;;21.13;;
29238;SDS011;16267;48.194;11.546;2022-12-18T10:02:40;56.58;;;23.83;;
29238;SDS011;16267;48.194;11.546;2022-12-18T10:05:30;54.97;;;22.35;;
29238;SDS011;16267;48.194;11.546;2022-12-18T10:14:36;47.20;;;21.35;;
29238;SDS011;16267;48.194;11.546;2022-12-18T10:17:23;50.67;;;22.15;;
29238;SDS011;16267;48.194;11.546;2022-12-18T10:25:31;54.00;;;22.60;;
29238;SDS011;16267;48.194;11.546;2022-12-18T10:28:16;52.10;;;23.10;;
29238;SDS011;16267;48.194;11.546;2022-12-18T10:30:43;46.17;;;21.60;;
29238;SDS011;16267;48.194;11.546;2022-12-18T10:33:16;49.60;;;21.45;;
29238;SDS011;16267;48.194;11.546;2022-12-18T10:35:46;50.28;;;21.90;;
29238;SDS011;16267;48.194;11.546;2022-12-18T10:47:05;53.15;;;24.48;;
29238;SDS011;16267;48.194;11.546;2022-12-18T10:49:50;60.30;;;27.13;;
29238;SDS011;16267;48.194;11.546;2022-12-18T10:52:24;80.15;;;34.97;;
29238;SDS011;16267;48.194;11.546;2022-12-18T10:54:52;76.30;;;32.08;;
29238;SDS011;16267;48.194;11.546;2022-12-18T10:57:39;60.90;;;26.27;;
29238;SDS011;16267;48.194;11.546;2022-12-18T11:00:29;53.97;;;25.35;;
29238;SDS011;16267;48.194;11.546;2022-12-18T11:02:55;71.78;;;28.65;;
29238;SDS011;16267;48.194;11.546;2022-12-18T11:07:58;78.03;;;29.63;;
29238;SDS011;16267;48.194;11.546;2022-12-18T11:10:38;81.38;;;31.70;;
29238;SDS011;16267;48.194;11.546;2022-12-18T11:13:25;65.32;;;27.38;;
29238;SDS011;16267;48.194;11.546;2022-12-18T11:15:54;54.88;;;22.88;;
29238;SDS011;16267;48.194;11.546;2022-12-18T11:18:27;48.53;;;23.08;;
29238;SDS011;16267;48.194;11.546;2022-12-18T11:21:01;48.10;;;21.38;;
29238;SDS011;16267;48.194;11.546;2022-12-18T11:23:34;47.55;;;22.10;;
29238;SDS011;16267;48.194;11.546;2022-12-18T11:26:02;49.03;;;22.42;;
29238;SDS011;16267;48.194;11.546;2022-12-18T11:34:00;44.28;;;19.70;;
29238;SDS011;16267;48.194;11.546;2022-12-18T11:36:44;51.13;;;21.30;;
29238;SDS011;16267;48.194;11.546;2022-12-18T11:44:53;44.92;;;21.10;;
29238;SDS011;16267;48.194;11.546;2022-12-18T11:50:24;48.75;;;19.95;;
29238;SDS011;16267;48.194;11.546;2022-12-18T11:52:51;49.20;;;20.40;;
29238;SDS011;16267;48.194;11.546;2022-12-18T12:01:22;44.70;;;22.13;;
29238;SDS011;16267;48.194;11.546;2022-12-18T12:09:44;44.05;;;21.45;;
29238;SDS011;16267;48.194;11.546;2022-12-18T12:12:25;42.42;;;19.70;;
29238;SDS011;16267;48.194;11.546;2022-12-18T12:23:41;42.70;;;19.50;;
29238;SDS011;16267;48.194;11.546;2022-12-18T12:27:00;44.03;;;19.35;;
29238;SDS011;16267;48.194;11.546;2022-12-18T12:29:46;38.95;;;17.42;;
29238;SDS011;16267;48.194;11.546;2022-12-18T12:38:54;40.53;;;18.17;;
29238;SDS011;16267;48.194;11.546;2022-12-18T12:41:27;44.05;;;19.85;;
29238;SDS011;16267;48.194;11.546;2022-12-18T12:44:19;39.08;;;18.10;;
29238;SDS011;16267;48.194;11.546;2022-12-18T12:46:56;43.42;;;19.30;;
29238;SDS011;16267;48.194;11.546;2022-12-18T12:49:30;41.78;;;19.30;;
29238;SDS011;16267;48.194;11.546;2022-12-18T12:52:05;41.13;;;18.17;;
29238;SDS011;16267;48.194;11.546;2022-12-18T12:54:37;44.00;;;20.38;;
29238;SDS011;16267;48.194;11.546;2022-12-18T13:02:36;45.83;;;20.63;;
29238;SDS011;16267;48.194;11.546;2022-12-18T13:10:55;46.90;;;19.83;;
29238;SDS011;16267;48.194;11.546;2022-12-18T13:16:20;43.22;;;19.63;;
29238;SDS011;16267;48.194;11.546;2022-12-18T13:18:50;44.78;;;21.02;;
29238;SDS011;16267;48.194;11.546;2022-12-18T13:21:28;46.38;;;19.95;;
29238;SDS011;16267;48.194;11.546;2022-12-18T13:23:58;42.33;;;20.48;;
29238;SDS011;16267;48.194;11.546;2022-12-18T13:26:47;44.55;;;19.83;;
29238;SDS011;16267;48.194;11.546;2022-12-18T13:29:15;44.10;;;19.85;;
29238;SDS011;16267;48.194;11.546;2022-12-18T13:32:18;45.92;;;21.35;;
29238;SDS011;16267;48.194;11.546;2022-12-18T13:35:13;48.77;;;20.27;;
29238;SDS011;16267;48.194;11.546;2022-12-18T13:37:53;47.40;;;20.75;;
29238;SDS011;16267;48.194;11.546;2022-12-18T13:45:49;49.30;;;22.17;;
29238;SDS011;16267;48.194;11.546;2022-12-18T13:51:31;43.28;;;19.65;;
29238;SDS011;16267;48.194;11.546;2022-12-18T13:54:00;44.42;;;20.60;;
29238;SDS011;16267;48.194;11.546;2022-12-18T13:56:42;47.92;;;20.33;;
29238;SDS011;16267;48.194;11.546;2022-12-18T14:04:19;46.75;;;20.35;;
29238;SDS011;16267;48.194;11.546;2022-12-18T14:06:55;47.45;;;20.23;;
29238;SDS011;16267;48.194;11.546;2022-12-18T14:09:47;44.88;;;20.45;;
29238;SDS011;16267;48.194;11.546;2022-12-18T14:12:25;40.53;;;19.30;;
29238;SDS011;16267;48.194;11.546;2022-12-18T14:17:55;43.83;;;21.15;;
29238;SDS011;16267;48.194;11.546;2022-12-18T14:20:25;48.42;;;21.17;;
29238;SDS011;16267;48.194;11.546;2022-12-18T14:22:56;46.83;;;21.38;;
29238;SDS011;16267;48.194;11.546;2022-12-18T14:25:24;47.25;;;22.08;;
29238;SDS011;16267;48.194;11.546;2022-12-18T14:27:59;50.10;;;22.13;;
29238;SDS011;16267;48.194;11.546;2022-12-18T14:30:40;53.60;;;23.90;;
29238;SDS011;16267;48.194;11.546;2022-12-18T14:41:10;54.03;;;25.73;;
29238;SDS011;16267;48.194;11.546;2022-12-18T14:43:39;53.17;;;23.88;;
29238;SDS011;16267;48.194;11.546;2022-12-18T14:51:59;40.97;;;19.20;;
29238;SDS011;16267;48.194;11.546;2022-12-18T14:54:38;46.10;;;21.48;;
29238;SDS011;16267;48.194;11.546;2022-12-18T15:00:03;52.55;;;23.10;;
29238;SDS011;16267;48.194;11.546;2022-12-18T15:02:48;44.23;;;19.33;;
29238;SDS011;16267;48.194;11.546;2022-12-18T15:05:25;51.30;;;23.25;;
29238;SDS011;16267;48.194;11.546;2022-12-18T15:07:56;49.17;;;24.17;;
29238;SDS011;16267;48.194;11.546;2022-12-18T15:10:25;52.22;;;24.90;;
29238;SDS011;16267;48.194;11.546;2022-12-18T15:20:55;49.42;;;21.92;;
29238;SDS011;16267;48.194;11.546;2022-12-18T15:23:27;48.08;;;22.00;;
29238;SDS011;16267;48.194;11.546;2022-12-18T15:26:02;46.20;;;21.92;;
29238;SDS011;16267;48.194;11.546;2022-12-18T15:28:47;51.67;;;22.85;;
29238;SDS011;16267;48.194;11.546;2022-12-18T15:31:30;65.60;;;31.02;;
29238;SDS011;16267;48.194;11.546;2022-12-18T15:34:17;51.80;;;23.70;;
29238;SDS011;16267;48.194;11.546;2022-12-18T15:36:46;51.42;;;21.95;;
29238;SDS011;16267;48.194;11.546;2022-12-18T15:39:12;58.05;;;29.05;;
29238;SDS011;16267;48.194;11.546;2022-12-18T15:41:38;58.33;;;27.65;;
29238;SDS011;16267;48.194;11.546;2022-12-18T15:44:23;54.88;;;25.45;;
29238;SDS011;16267;48.194;11.546;2022-12-18T15:46:50;60.97;;;26.05;;
29238;SDS011;16267;48.194;11.546;2022-12-18T15:49:16;61.17;;;25.38;;
29238;SDS011;16267;48.194;11.546;2022-12-18T15:51:41;67.60;;;28.35;;
29238;SDS011;16267;48.194;11.546;2022-12-18T15:54:09;57.08;;;24.00;;
29238;SDS011;16267;48.194;11.546;2022-12-18T15:56:41;66.22;;;30.20;;
29238;SDS011;16267;48.194;11.546;2022-12-18T15:59:27;48.53;;;22.70;;
29238;SDS011;16267;48.194;11.546;2022-12-18T16:01:53;44.00;;;20.98;;
29238;SDS011;16267;48.194;11.546;2022-12-18T16:04:19;53.00;;;23.38;;
29238;SDS011;16267;48.194;11.546;2022-12-18T16:06:47;50.03;;;22.55;;
29238;SDS011;16267;48.194;11.546;2022-12-18T16:09:13;51.00;;;22.23;;
29238;SDS011;16267;48.194;11.546;2022-12-18T16:11:39;58.13;;;24.80;;
29238;SDS011;16267;48.194;11.546;2022-12-18T16:14:18;102.07;;;37.58;;
29238;SDS011;16267;48.194;11.546;2022-12-18T16:16:48;52.35;;;23.20;;
29238;SDS011;16267;48.194;11.546;2022-12-18T16:19:16;60.65;;;26.83;;
29238;SDS011;16267;48.194;11.546;2022-12-18T16:21:43;56.03;;;23.98;;
29238;SDS011;16267;48.194;11.546;2022-12-18T16:24:19;61.40;;;28.15;;
29238;SDS011;16267;48.194;11.546;2022-12-18T16:26:51;64.13;;;26.40;;
29238;SDS011;16267;48.194;11.546;2022-12-18T16:29:18;53.72;;;24.80;;
29238;SDS011;16267;48.194;11.546;2022-12-18T16:31:49;57.78;;;26.23;;
29238;SDS011;16267;48.194;11.546;2022-12-18T16:34:20;55.58;;;25.38;;
29238;SDS011;16267;48.194;11.546;2022-12-18T16:37:11;52.88;;;23.05;;
29238;SDS011;16267;48.194;11.546;2022-12-18T16:39:39;55.85;;;23.55;;
29238;SDS011;16267;48.194;11.546;2022-12-18T16:42:13;45.38;;;21.98;;
29238;SDS011;16267;48.194;11.546;2022-12-18T16:44:44;50.28;;;22.75;;
29238;SDS011;16267;48.194;11.546;2022-12-18T16:47:11;55.70;;;25.00;;
29238;SDS011;16267;48.194;11.546;2022-12-18T16:49:37;65.97;;;30.65;;
29238;SDS011;16267;48.194;11.546;2022-12-18T16:52:04;57.42;;;27.08;;
29238;SDS011;16267;48.194;11.546;2022-12-18T16:54:31;57.97;;;27.05;;
29238;SDS011;16267;48.194;11.546;2022-12-18T16:56:59;58.67;;;25.77;;
29238;SDS011;16267;48.194;11.546;2022-12-18T16:59:25;59.97;;;24.92;;
29238;SDS011;16267;48.194;11.546;2022-12-18T17:01:52;55.97;;;25.77;;
29238;SDS011;16267;48.194;11.546;2022-12-18T17:04:19;57.47;;;25.42;;
29238;SDS011;16267;48.194;11.546;2022-12-18T17:06:45;59.28;;;26.02;;
29238;SDS011;16267;48.194;11.546;2022-12-18T17:09:16;51.50;;;24.77;;
29238;SDS011;16267;48.194;11.546;2022-12-18T17:11:53;60.70;;;26.45;;
29238;SDS011;16267;48.194;11.546;2022-12-18T17:14:20;56.95;;;26.05;;
29238;SDS011;16267;48.194;11.546;2022-12-18T17:16:48;76.45;;;30.98;;
29238;SDS011;16267;48.194;11.546;2022-12-18T17:19:14;62.90;;;27.65;;
29238;SDS011;16267;48.194;11.546;2022-12-18T17:21:40;56.42;;;24.77;;
29238;SDS011;16267;48.194;11.546;2022-12-18T17:24:08;53.20;;;23.77;;
29238;SDS011;16267;48.194;11.546;2022-12-18T17:26:34;71.95;;;30.13;;
29238;SDS011;16267;48.194;11.546;2022-12-18T17:29:01;83.88;;;32.53;;
29238;SDS011;16267;48.194;11.546;2022-12-18T17:31:28;67.68;;;31.42;;
29238;SDS011;16267;48.194;11.546;2022-12-18T17:33:55;65.65;;;28.58;;
29238;SDS011;16267;48.194;11.546;2022-12-18T17:36:22;62.53;;;28.70;;
29238;SDS011;16267;48.194;11.546;2022-12-18T17:38:52;65.43;;;29.50;;
29238;SDS011;16267;48.194;11.546;2022-12-18T17:41:21;61.75;;;28.27;;
29238;SDS011;16267;48.194;11.546;2022-12-18T17:44:21;59.47;;;26.67;;
29238;SDS011;16267;48.194;11.546;2022-12-18T17:49:08;54.90;;;24.50;;
29238;SDS011;16267;48.194;11.546;2022-12-18T17:51:34;58.55;;;26.10;;
29238;SDS011;16267;48.194;11.546;2022-12-18T17:54:00;61.67;;;27.00;;
29238;SDS011;16267;48.194;11.546;2022-12-18T17:56:26;61.88;;;27.30;;
29238;SDS011;16267;48.194;11.546;2022-12-18T17:58:52;64.45;;;29.17;;
29238;SDS011;16267;48.194;11.546;2022-12-18T18:01:19;61.60;;;27.35;;
29238;SDS011;16267;48.194;11.546;2022-12-18T18:03:48;64.05;;;28.83;;
29238;SDS011;16267;48.194;11.546;2022-12-18T18:06:14;61.78;;;27.65;;
29238;SDS011;16267;48.194;11.546;2022-12-18T18:08:40;59.38;;;26.67;;
29238;SDS011;16267;48.194;11.546;2022-12-18T18:11:10;64.72;;;29.13;;
29238;SDS011;16267;48.194;11.546;2022-12-18T18:13:59;64.85;;;28.67;;
29238;SDS011;16267;48.194;11.546;2022-12-18T18:19:04;65.38;;;29.10;;
29238;SDS011;16267;48.194;11.546;2022-12-18T18:21:36;65.25;;;27.42;;
29238;SDS011;16267;48.194;11.546;2022-12-18T18:24:05;63.28;;;28.70;;
29238;SDS011;16267;48.194;11.546;2022-12-18T18:26:32;65.07;;;26.73;;
29238;SDS011;16267;48.194;11.546;2022-12-18T18:29:00;65.85;;;27.63;;
29238;SDS011;16267;48.194;11.546;2022-12-18T18:31:28;66.68;;;29.08;;
29238;SDS011;16267;48.194;11.546;2022-12-18T18:33:55;65.38;;;27.42;;
29238;SDS011;16267;48.194;11.546;2022-12-18T18:36:21;65.70;;;28.38;;
29238;SDS011;16267;48.194;11.546;2022-12-18T18:38:48;68.63;;;29.23;;
29238;SDS011;16267;48.194;11.546;2022-12-18T18:41:15;62.25;;;28.95;;
29238;SDS011;16267;48.194;11.546;2022-12-18T18:43:42;64.60;;;27.92;;
29238;SDS011;16267;48.194;11.546;2022-12-18T18:46:08;60.75;;;28.10;;
29238;SDS011;16267;48.194;11.546;2022-12-18T18:48:37;69.20;;;29.20;;
29238;SDS011;16267;48.194;11.546;2022-12-18T18:53:36;50.40;;;23.38;;
29238;SDS011;16267;48.194;11.546;2022-12-18T18:56:05;62.30;;;27.10;;
29238;SDS011;16267;48.194;11.546;2022-12-18T18:58:32;65.53;;;27.63;;
29238;SDS011;16267;48.194;11.546;2022-12-18T19:01:00;67.47;;;29.23;;
29238;SDS011;16267;48.194;11.546;2022-12-18T19:03:29;64.57;;;27.90;;
29238;SDS011;16267;48.194;11.546;2022-12-18T19:05:56;63.85;;;28.35;;
29238;SDS011;16267;48.194;11.546;2022-12-18T19:08:25;61.33;;;26.83;;
29238;SDS011;16267;48.194;11.546;2022-12-18T19:10:54;63.10;;;27.83;;
29238;SDS011;16267;48.194;11.546;2022-12-18T19:13:23;57.60;;;25.85;;
29238;SDS011;16267;48.194;11.546;2022-12-18T19:16:01;68.43;;;28.30;;
29238;SDS011;16267;48.194;11.546;2022-12-18T19:18:30;58.20;;;26.42;;
29238;SDS011;16267;48.194;11.546;2022-12-18T19:20:57;60.67;;;25.90;;
29238;SDS011;16267;48.194;11.546;2022-12-18T19:23:28;67.32;;;28.08;;
29238;SDS011;16267;48.194;11.546;2022-12-18T19:25:58;61.58;;;26.30;;
29238;SDS011;16267;48.194;11.546;2022-12-18T19:28:28;71.75;;;29.35;;
29238;SDS011;16267;48.194;11.546;2022-12-18T19:30:55;73.97;;;31.75;;
29238;SDS011;16267;48.194;11.546;2022-12-18T19:33:26;71.22;;;30.05;;
29238;SDS011;16267;48.194;11.546;2022-12-18T19:35:54;59.22;;;27.70;;
29238;SDS011;16267;48.194;11.546;2022-12-18T19:38:20;68.15;;;30.38;;
29238;SDS011;16267;48.194;11.546;2022-12-18T19:40:46;69.50;;;30.08;;
29238;SDS011;16267;48.194;11.546;2022-12-18T19:43:12;68.10;;;29.77;;
29238;SDS011;16267;48.194;11.546;2022-12-18T19:45:38;67.60;;;28.98;;
29238;SDS011;16267;48.194;11.546;2022-12-18T19:48:05;73.07;;;31.48;;
29238;SDS011;16267;48.194;11.546;2022-12-18T19:50:31;73.60;;;28.55;;
29238;SDS011;16267;48.194;11.546;2022-12-18T19:52:58;69.75;;;29.50;;
29238;SDS011;16267;48.194;11.546;2022-12-18T19:55:24;75.28;;;31.30;;
29238;SDS011;16267;48.194;11.546;2022-12-18T19:57:50;74.55;;;29.80;;
29238;SDS011;16267;48.194;11.546;2022-12-18T20:00:16;76.55;;;31.42;;
29238;SDS011;16267;48.194;11.546;2022-12-18T20:02:42;78.88;;;31.23;;
29238;SDS011;16267;48.194;11.546;2022-12-18T20:05:10;66.07;;;28.55;;
29238;SDS011;16267;48.194;11.546;2022-12-18T20:07:37;70.68;;;29.02;;
29238;SDS011;16267;48.194;11.546;2022-12-18T20:10:05;69.88;;;30.20;;
29238;SDS011;16267;48.194;11.546;2022-12-18T20:12:35;76.82;;;30.33;;
29238;SDS011;16267;48.194;11.546;2022-12-18T20:15:01;70.60;;;29.83;;
29238;SDS011;16267;48.194;11.546;2022-12-18T20:17:27;75.65;;;30.33;;
29238;SDS011;16267;48.194;11.546;2022-12-18T20:19:52;69.15;;;30.52;;
29238;SDS011;16267;48.194;11.546;2022-12-18T20:22:18;74.78;;;28.95;;
29238;SDS011;16267;48.194;11.546;2022-12-18T20:24:44;71.75;;;28.75;;
29238;SDS011;16267;48.194;11.546;2022-12-18T20:27:10;65.78;;;29.63;;
29238;SDS011;16267;48.194;11.546;2022-12-18T20:29:39;69.50;;;29.58;;
29238;SDS011;16267;48.194;11.546;2022-12-18T20:32:07;68.18;;;28.13;;
29238;SDS011;16267;48.194;11.546;2022-12-18T20:34:33;69.28;;;28.83;;
29238;SDS011;16267;48.194;11.546;2022-12-18T20:36:59;61.88;;;26.60;;
29238;SDS011;16267;48.194;11.546;2022-12-18T20:39:25;65.10;;;29.02;;
29238;SDS011;16267;48.194;11.546;2022-12-18T20:41:51;69.57;;;28.73;;
29238;SDS011;16267;48.194;11.546;2022-12-18T20:44:18;60.55;;;25.30;;
29238;SDS011;16267;48.194;11.546;2022-12-18T20:46:46;65.63;;;27.98;;
29238;SDS011;16267;48.194;11.546;2022-12-18T20:49:11;66.15;;;28.83;;
29238;SDS011;16267;48.194;11.546;2022-12-18T20:51:37;70.90;;;28.98;;
29238;SDS011;16267;48.194;11.546;2022-12-18T20:54:03;88.72;;;34.63;;
29238;SDS011;16267;48.194;11.546;2022-12-18T20:56:29;68.70;;;28.48;;
29238;SDS011;16267;48.194;11.546;2022-12-18T20:58:55;70.57;;;30.30;;
29238;SDS011;16267;48.194;11.546;2022-12-18T21:01:23;71.68;;;28.55;;
29238;SDS011;16267;48.194;11.546;2022-12-18T21:03:51;70.93;;;31.00;;
29238;SDS011;16267;48.194;11.546;2022-12-18T21:06:18;66.22;;;27.95;;
29238;SDS011;16267;48.194;11.546;2022-12-18T21:08:46;68.93;;;30.05;;
29238;SDS011;16267;48.194;11.546;2022-12-18T21:14:26;70.05;;;28.83;;
29238;SDS011;16267;48.194;11.546;2022-12-18T21:16:55;68.03;;;29.13;;
29238;SDS011;16267;48.194;11.546;2022-12-18T21:19:24;70.75;;;29.63;;
29238;SDS011;16267;48.194;11.546;2022-12-18T21:21:51;67.45;;;28.38;;
29238;SDS011;16267;48.194;11.546;2022-12-18T21:24:28;68.72;;;27.45;;
29238;SDS011;16267;48.194;11.546;2022-12-18T21:26:56;69.90;;;28.98;;
29238;SDS011;16267;48.194;11.546;2022-12-18T21:29:24;71.65;;;29.92;;
29238;SDS011;16267;48.194;11.546;2022-12-18T21:31:51;75.80;;;29.60;;
29238;SDS011;16267;48.194;11.546;2022-12-18T21:34:19;64.25;;;27.38;;
29238;SDS011;16267;48.194;11.546;2022-12-18T21:36:53;70.88;;;29.30;;
29238;SDS011;16267;48.194;11.546;2022-12-18T21:39:21;70.47;;;28.48;;
29238;SDS011;16267;48.194;11.546;2022-12-18T21:41:48;73.30;;;29.80;;
29238;SDS011;16267;48.194;11.546;2022-12-18T21:44:33;75.55;;;30.27;;
29238;SDS011;16267;48.194;11.546;2022-12-18T21:46:59;72.25;;;28.85;;